Terminal Aerodrome Forecast
Issued by NWS

Home | Current Version | Previous Version | Text Only | Print | Product List | Glossary On
Versions: 1 2 3 4 5 6 7 8 9 10 11 12 13 14 15 16 17 18 19 20 21 22 23 24
000
FTUS43 KIND 022300
TAFBMG
TAF
KBMG 022320Z 0300/0324 30003KT P6SM SCT200
     FM030100 VRB02KT P6SM SCT250
     FM030500 00000KT 2SM BR SCT006
     FM030700 00000KT 1/2SM FG VV003
      TEMPO 0309/0313 1/4SM FG VV002
     FM031400 19003KT P6SM FEW030
      AMD LTD TO CLD VIS AND WIND 0301/0313=

USA.gov is the U.S. government's official web portal to all federal, state and local government web resources and services.